CheckWX is a tool to help pilots better visualize weather data.  It is not intended as a substitute for an official pre-flight weather briefing.

23:46:44 UTC

RCTP TAF
Taiwan Taoyuan International Airport
Taipei, Taiwan
TAF RCTP 012300Z 0200/0306 02010KT 9999 FEW012 BKN032 TEMPO 0200/0203 03015G25KT 4000 TSRA SCT006 FEW015CB BKN016 BKN040 TEMPO 0206/0212 05015KT 3200 SHRA SCT005 BKN008 FEW012CB BKN030 BECMG 0212/0214 SCT006 BKN011 BKN030 TEMPO 0218/0224 5000 RA SCT004 BKN007 BKN020

Apr-2@
00:00 UTC

Apr-2 @ 00:00 UTC

Apr-2@
12:00 UTC

Apr-2 @ 12:00 UTC

TAF RCTP 012300Z 0200/0306 02010KT 9999 FEW012 BKN032
Wind
  • 020° at 10 KTS
Cloud Levels
  • Few at 1,200' AGL
  • Broken at 3,200' AGL

Apr-2@
00:00 UTC

Apr-2 @ 00:00 UTC

Apr-2@
03:00 UTC

Apr-2 @ 03:00 UTC

TEMPO 0200/0203 03015G25KT 4000 TSRA SCT006 FEW015CB BKN016 BKN040

Temporary

Temporary Changes expected for less than half the time period

Wind
  • 030° at 15 KTS
  • {Gusting to 25 KTS
Conditions
Thunderstorm, Rain
Cloud Levels
  • Scattered at 600' AGL
  • Few at 1,500' AGL
  • Broken at 1,600' AGL

Apr-2@
06:00 UTC

Apr-2 @ 06:00 UTC

Apr-2@
12:00 UTC

Apr-2 @ 12:00 UTC

TEMPO 0206/0212 05015KT 3200 SHRA SCT005 BKN008 FEW012CB BKN030

Temporary

Temporary Changes expected for less than half the time period

Wind
  • 050° at 15 KTS
Conditions
Showers, Rain
Cloud Levels
  • Scattered at 500' AGL
  • Broken at 800' AGL
  • Few at 1,200' AGL

Apr-2@
12:00 UTC

Apr-2 @ 12:00 UTC

Apr-3@
06:00 UTC

Apr-3 @ 06:00 UTC

BECMG 0212/0214 SCT006 BKN011 BKN030

Becoming

Becoming Conditions expected by Thu, Apr 2, 2020 @ 14:00 UTC

Wind
  • 020° at 10 KTS
Cloud Levels
  • Scattered at 600' AGL
  • Broken at 1,100' AGL
  • Broken at 3,000' AGL

Apr-2@
18:00 UTC

Apr-2 @ 18:00 UTC

Apr-3@
00:00 UTC

Apr-3 @ 00:00 UTC

TEMPO 0218/0224 5000 RA SCT004 BKN007 BKN020

Temporary

Temporary Changes expected for less than half the time period

Conditions
Rain
Cloud Levels
  • Scattered at 400' AGL
  • Broken at 700' AGL
  • Broken at 2,000' AGL